Wetterdaten Juli 2003

Datum Tiefsttemp. Hchsttemp. Luftdruck Regen Wind
01.07.2003 11,1 C 22,8 C 1001 hpa 3,2 mm 11,2 km/h
02.07.2003 11,9 C 21,5 C 1003 hpa 4,8 mm 16,6 km/h
03.07.2003 11,2 C 20,2 C 1009 hpa 3,4 mm 11,9 km/h
04.07.2003 11,4 C 19,5 C 1013 hpa 18,6 mm 10,8 km/h
05.07.2003 12,1 C 16,1 C 1016 hpa 2,7 mm 14,7 km/h
06.07.2003 11,5 C 22,9 C 1020 hpa 0,0 mm 9,4 km/h
07.07.2003 10,8 C 25,2 C 1022 hpa 0,0 mm 9,4 km/h
08.07.2003 13,2 C 26,4 C 1021 hpa 0,0 mm 11,9 km/h
09.07.2003 12,4 C 27,1 C 1020 hpa 0,0 mm 10,1 km/h
10.07.2003 10,2 C 28,1 C 1019 hpa 0,0 mm 10,6 km/h
11.07.2003 14,9 C 28,9 C 1019 hpa 0,0 mm 13,3 km/h
12.07.2003 10,0 C 24,4 C 1021 hpa 0,0 mm 14,8 km/h
13.07.2003 10,3 C 25,1 C 1020 hpa 0,0 mm 14,0 km/h
14.07.2003 13,0 C 28,7 C 1015 hpa 0,0 mm 11,6 km/h
15.07.2003 13,8 C 30,8 C 1011 hpa 0,0 mm 14,1 km/h
16.07.2003 20,4 C 33,1 C 1008 hpa 0,0 mm 14,6 km/h
17.07.2003 15,1 C 22,6 C 1017 hpa 0,0 mm 16,7 km/h
18.07.2003 12,4 C 27,6 C 1022 hpa 0,0 mm 10,1 km/h
19.07.2003 15,7 C 31,1 C 1019 hpa 0,0 mm 9,4 km/h
20.07.2003 18,7 C 34,3 C 1014 hpa 0,2 mm 13,6 km/h
21.07.2003 13,8 C 31,1 C 1016 hpa 0,0 mm 7,2 km/h
22.07.2003 15,9 C 27,7 C 1019 hpa 0,0 mm 12,4 km/h
23.07.2003 16,3 C 26,2 C 1017 hpa 0,1 mm 7,9 km/h
24.07.2003 16,1 C 25,6 C 1015 hpa 11,3 mm 9,4 km/h
25.07.2003 11,6 C 26,2 C 1012 hpa 0,0 mm 14,4 km/h
26.07.2003 14,7 C 24,4 C 1010 hpa 9,7 mm 15,1 km/h
27.07.2003 16,0 C 23,4 C 1013 hpa 1,2 mm 10,1 km/h
28.07.2003 10,4 C 23,7 C 1021 hpa 2,4 mm 10,8 km/h
29.07.2003 12,3 C 26,1 C 1023 hpa 0,0 mm 8,6 km/h
30.07.2003 14,4 C 22,4 C 1016 hpa 5,1 mm 7,2 km/h
31.07.2003 14,1 C 25,7 C 1018 hpa 0,0 mm 6,3 km/h



Gratis Homepage von Beepworld
 
Verantwortlich für den Inhalt dieser Seite ist ausschließlich der
Autor dieser Homepage, kontaktierbar über dieses Formular!